Time;durP1;ratioP1;P1;durP2;ratioP2;P2;SDS_P1;SDS_P2;PMS_P1;PMS_P2;Temp;Humidity;BMP_temperature;BMP_pressure;BME280_temperature;BME280_humidity;BME280_pressure;Samples;Min_cycle;Max_cycle;Signal;HPM_P1;HPM_P2
2019/04/08 00:01:56;;;;;;;14.6;12.6;;;;;;;11.48;69.14648;952.305;;;;
2019/04/08 00:04:03;;;;;;;14.8;12.3;;;;;;;11.32;69.86523;952.42;;;;
2019/04/08 00:06:28;;;;;;;16.4;12.6;;;;;;;11.36;69.91797;952.3358;;;;
2019/04/08 00:08:54;;;;;;;14.8;12.2;;;;;;;11.36;70.23926;952.2799;;;;
2019/04/08 00:11:19;;;;;;;15.9;13.2;;;;;;;11.21;71.42676;952.3148;;;;
2019/04/08 00:13:44;;;;;;;15.4;13.3;;;;;;;11.33;70.86914;952.2841;;;;
2019/04/08 00:16:09;;;;;;;15.5;13;;;;;;;11.09;72.03027;952.2454;;;;
2019/04/08 00:18:34;;;;;;;15.6;13.2;;;;;;;11.1;72.30176;952.295;;;;
2019/04/08 00:21:00;;;;;;;15.8;13.7;;;;;;;11.06;72.49512;952.2316;;;;
2019/04/08 00:23:25;;;;;;;17.4;14;;;;;;;11.04;72.76953;952.3853;;;;
2019/04/08 00:25:59;;;;;;;16.4;14.1;;;;;;;11.27;71.70605;952.3656;;;;
2019/04/08 00:28:24;;;;;;;15.4;13.3;;;;;;;11.5;71.19727;952.4547;;;;
2019/04/08 00:30:55;;;;;;;17.3;14.6;;;;;;;11.74;70.25781;952.4453;;;;
2019/04/08 00:33:20;;;;;;;16.4;14.6;;;;;;;12.03;69.04395;952.4072;;;;
2019/04/08 00:35:45;;;;;;;15.6;13.8;;;;;;;11.96;68.82031;952.3705;;;;
2019/04/08 00:38:10;;;;;;;14.5;13;;;;;;;11.7;70.50684;952.438;;;;
2019/04/08 00:40:35;;;;;;;17;13.8;;;;;;;11.67;70.26758;952.4772;;;;
2019/04/08 00:43:01;;;;;;;16.4;13.6;;;;;;;11.44;71.50977;952.4764;;;;
2019/04/08 00:45:26;;;;;;;15.3;13.6;;;;;;;11.33;72.29492;952.4736;;;;
2019/04/08 00:47:51;;;;;;;15.4;13.7;;;;;;;11.12;73.13867;952.5041;;;;
2019/04/08 00:50:16;;;;;;;15.2;13.5;;;;;;;11.22;72.66602;952.485;;;;
2019/04/08 00:52:41;;;;;;;17.1;14.3;;;;;;;;;;;;;
2019/04/08 00:55:07;;;;;;;16.1;14.2;;;;;;;;;;;;;
2019/04/08 00:57:32;;;;;;;19;15.6;;;;;;;;;;;;;
2019/04/08 00:59:57;;;;;;;17.6;14.5;;;;;;;;;;;;;
2019/04/08 01:02:22;;;;;;;16.8;14.7;;;;;;;;;;;;;
2019/04/08 01:04:48;;;;;;;19.7;15.1;;;;;;;;;;;;;
2019/04/08 01:07:13;;;;;;;18.8;15.4;;;;;;;;;;;;;
2019/04/08 01:09:38;;;;;;;17.5;14.5;;;;;;;;;;;;;
2019/04/08 01:12:03;;;;;;;18.1;15.3;;;;;;;;;;;;;
2019/04/08 01:14:29;;;;;;;16.5;14.7;;;;;;;;;;;;;
2019/04/08 01:16:54;;;;;;;16.5;14.7;;;;;;;;;;;;;
2019/04/08 01:19:19;;;;;;;16.3;14.4;;;;;;;;;;;;;
2019/04/08 01:21:44;;;;;;;16.9;14.9;;;;;;;;;;;;;
2019/04/08 01:24:09;;;;;;;17.6;15.2;;;;;;;;;;;;;
2019/04/08 01:26:34;;;;;;;16.6;14.8;;;;;;;;;;;;;
2019/04/08 01:28:59;;;;;;;18.5;16;;;;;;;;;;;;;
2019/04/08 01:31:24;;;;;;;17.6;15.5;;;;;;;;;;;;;
2019/04/08 01:33:49;;;;;;;18.3;16;;;;;;;;;;;;;
2019/04/08 01:36:14;;;;;;;19.6;15.7;;;;;;;;;;;;;
2019/04/08 01:38:39;;;;;;;18.4;15.6;;;;;;;;;;;;;
2019/04/08 01:41:05;;;;;;;19.9;16.8;;;;;;;;;;;;;
2019/04/08 01:43:30;;;;;;;19.9;16.8;;;;;;;;;;;;;
2019/04/08 01:45:55;;;;;;;21;16.6;;;;;;;;;;;;;
2019/04/08 01:48:21;;;;;;;21;17.3;;;;;;;;;;;;;
2019/04/08 01:50:46;;;;;;;17.9;15.1;;;;;;;;;;;;;
2019/04/08 01:53:11;;;;;;;19.5;16.8;;;;;;;;;;;;;
2019/04/08 01:55:36;;;;;;;19.9;16.1;;;;;;;;;;;;;
2019/04/08 01:58:01;;;;;;;18.2;15.8;;;;;;;;;;;;;
2019/04/08 02:00:26;;;;;;;21.5;17.2;;;;;;;;;;;;;
2019/04/08 02:02:51;;;;;;;19.8;17.3;;;;;;;;;;;;;
2019/04/08 02:05:16;;;;;;;19.4;17;;;;;;;;;;;;;
2019/04/08 02:07:41;;;;;;;21.1;17.6;;;;;;;;;;;;;
2019/04/08 02:10:07;;;;;;;22.2;18.3;;;;;;;;;;;;;
2019/04/08 02:12:32;;;;;;;21.9;18;;;;;;;;;;;;;
2019/04/08 02:14:57;;;;;;;22.5;18.4;;;;;;;;;;;;;
2019/04/08 02:17:22;;;;;;;21;17.8;;;;;;;;;;;;;
2019/04/08 02:19:47;;;;;;;21.4;17.6;;;;;;;;;;;;;
2019/04/08 02:22:12;;;;;;;22.2;17.7;;;;;;;;;;;;;
2019/04/08 02:24:37;;;;;;;22.8;18.7;;;;;;;;;;;;;
2019/04/08 02:27:02;;;;;;;22.2;18.3;;;;;;;;;;;;;
2019/04/08 02:29:28;;;;;;;22.8;18;;;;;;;;;;;;;
2019/04/08 02:31:57;;;;;;;24;19.2;;;;;;;;;;;;;
2019/04/08 02:34:18;;;;;;;21.2;18.2;;;;;;;;;;;;;
2019/04/08 02:36:43;;;;;;;21;17.7;;;;;;;;;;;;;
2019/04/08 02:39:08;;;;;;;23.1;18.3;;;;;;;;;;;;;
2019/04/08 02:41:33;;;;;;;22;17.2;;;;;;;;;;;;;
2019/04/08 02:43:58;;;;;;;21.5;17.8;;;;;;;;;;;;;
2019/04/08 02:46:23;;;;;;;23.1;19.2;;;;;;;;;;;;;
2019/04/08 02:48:48;;;;;;;22.5;18.9;;;;;;;;;;;;;
2019/04/08 02:51:14;;;;;;;23.9;18.8;;;;;;;;;;;;;
2019/04/08 02:53:39;;;;;;;22.1;18.7;;;;;;;;;;;;;
2019/04/08 02:56:04;;;;;;;22.5;19.2;;;;;;;;;;;;;
2019/04/08 02:58:29;;;;;;;22.8;18.6;;;;;;;;;;;;;
2019/04/08 03:00:54;;;;;;;22.5;18.5;;;;;;;;;;;;;
2019/04/08 03:03:19;;;;;;;22.4;18.3;;;;;;;;;;;;;
2019/04/08 03:05:44;;;;;;;23.2;18.8;;;;;;;;;;;;;
2019/04/08 03:08:09;;;;;;;21.7;18.7;;;;;;;;;;;;;
2019/04/08 03:10:34;;;;;;;19.7;16.7;;;;;;;;;;;;;
2019/04/08 03:13:00;;;;;;;21.1;17.5;;;;;;;;;;;;;
2019/04/08 03:15:25;;;;;;;18.5;16;;;;;;;;;;;;;
2019/04/08 03:17:50;;;;;;;17.9;15.5;;;;;;;;;;;;;
2019/04/08 03:20:15;;;;;;;17.5;14.9;;;;;;;;;;;;;
2019/04/08 03:22:40;;;;;;;17.7;14.4;;;;;;;;;;;;;
2019/04/08 03:25:06;;;;;;;13.8;12.3;;;;;;;;;;;;;
2019/04/08 03:27:31;;;;;;;17;13.9;;;;;;;;;;;;;
2019/04/08 03:29:56;;;;;;;16;12.9;;;;;;;;;;;;;
2019/04/08 03:32:21;;;;;;;16.8;12.8;;;;;;;;;;;;;
2019/04/08 03:34:46;;;;;;;17.6;12.8;;;;;;;;;;;;;
2019/04/08 03:37:11;;;;;;;13.9;11.8;;;;;;;;;;;;;
2019/04/08 03:39:36;;;;;;;12.2;10.8;;;;;;;;;;;;;
2019/04/08 03:42:01;;;;;;;14.3;11.4;;;;;;;;;;;;;
2019/04/08 03:44:26;;;;;;;22.2;14.2;;;;;;;;;;;;;
2019/04/08 03:46:52;;;;;;;12.7;10.9;;;;;;;;;;;;;
2019/04/08 03:49:17;;;;;;;14;11.7;;;;;;;;;;;;;
2019/04/08 03:51:42;;;;;;;14.4;12.2;;;;;;;;;;;;;
2019/04/08 03:54:07;;;;;;;14.1;11.8;;;;;;;;;;;;;
2019/04/08 03:56:32;;;;;;;12.3;10.5;;;;;;;;;;;;;
2019/04/08 03:58:57;;;;;;;13.9;11;;;;;;;;;;;;;
2019/04/08 04:02:27;;;;;;;12.7;10.9;;;;;;;9.99;75.6582;953.3555;;;;
2019/04/08 04:07:19;;;;;;;12.5;10.6;;;;;;;10.03;75.54199;953.4201;;;;
2019/04/08 04:09:42;;;;;;;15.2;11.7;;;;;;;10.11;75.48828;953.4564;;;;
2019/04/08 04:12:07;;;;;;;13;11.5;;;;;;;10.25;75.18164;953.4976;;;;
2019/04/08 04:14:32;;;;;;;13.8;11.7;;;;;;;10.26;74.88086;953.4706;;;;
2019/04/08 04:16:57;;;;;;;14.7;12;;;;;;;10.14;75.76172;953.4341;;;;
2019/04/08 04:19:22;;;;;;;13.4;11.4;;;;;;;10.21;75.35059;953.5412;;;;
2019/04/08 04:21:48;;;;;;;13.3;11.9;;;;;;;10.18;75.35742;953.5973;;;;
2019/04/08 04:24:13;;;;;;;12.9;11.5;;;;;;;10.27;75.00488;953.5602;;;;
2019/04/08 04:26:39;;;;;;;13;11.6;;;;;;;10.53;74.22949;953.6102;;;;
2019/04/08 04:29:04;;;;;;;13.5;11.1;;;;;;;10.44;74.36914;953.6617;;;;
2019/04/08 04:31:29;;;;;;;15;11.2;;;;;;;10.36;74.47656;953.6083;;;;
2019/04/08 04:33:55;;;;;;;11.4;10;;;;;;;10.3;74.75586;953.6287;;;;
2019/04/08 04:36:20;;;;;;;12.2;10.5;;;;;;;10.5;74.06836;953.6702;;;;
2019/04/08 04:38:45;;;;;;;12.8;10.6;;;;;;;10.75;72.69727;953.6442;;;;
2019/04/08 04:41:10;;;;;;;13;10.2;;;;;;;10.94;71.49512;953.6824;;;;
2019/04/08 04:43:35;;;;;;;12.4;10;;;;;;;10.69;72.77734;953.6397;;;;
2019/04/08 04:46:00;;;;;;;11.4;9.8;;;;;;;10.55;73.39746;953.7374;;;;
2019/04/08 04:48:25;;;;;;;11.4;10;;;;;;;10.46;73.44922;953.7541;;;;
2019/04/08 04:50:50;;;;;;;12.8;10.3;;;;;;;10.38;73.89258;953.8074;;;;
2019/04/08 04:53:16;;;;;;;10.8;8.8;;;;;;;10.1;74.77734;953.7162;;;;
2019/04/08 04:55:41;;;;;;;10.7;8.7;;;;;;;10.21;74.35156;953.8011;;;;
2019/04/08 04:58:07;;;;;;;10.9;8.7;;;;;;;10.31;73.86914;953.8517;;;;
2019/04/08 05:00:32;;;;;;;11.3;9.4;;;;;;;10.49;73.10938;953.8224;;;;
2019/04/08 05:02:57;;;;;;;10;8.7;;;;;;;10.5;73.00195;953.8127;;;;
2019/04/08 05:05:23;;;;;;;10.9;8.7;;;;;;;10.42;72.96582;953.8588;;;;
2019/04/08 05:07:48;;;;;;;9.4;7.8;;;;;;;10.27;73.50488;953.8708;;;;
2019/04/08 05:10:16;;;;;;;10.4;7.8;;;;;;;10.14;74.33887;953.892;;;;
2019/04/08 05:12:41;;;;;;;10.2;8.4;;;;;;;10.39;73.44922;953.9836;;;;
2019/04/08 05:15:07;;;;;;;10.2;8.5;;;;;;;10.61;72.30762;953.983;;;;
2019/04/08 05:17:32;;;;;;;8.7;7.7;;;;;;;10.57;72.39063;954.0061;;;;
2019/04/08 05:19:58;;;;;;;10.1;8.8;;;;;;;10.43;73.44531;953.9994;;;;
2019/04/08 05:22:23;;;;;;;9.7;8.6;;;;;;;10.54;73.05078;954.1011;;;;
2019/04/08 05:24:48;;;;;;;11.6;9.7;;;;;;;10.27;74.31836;954.0898;;;;
2019/04/08 05:27:14;;;;;;;12.8;10.8;;;;;;;10.37;73.93359;954.1372;;;;
2019/04/08 05:29:39;;;;;;;12.8;10.5;;;;;;;10.31;74.64648;954.1584;;;;
2019/04/08 05:32:04;;;;;;;12.6;10.1;;;;;;;10.63;73.62402;954.218;;;;
2019/04/08 05:34:30;;;;;;;12.7;11.1;;;;;;;10.35;74.66406;954.2864;;;;
2019/04/08 05:36:55;;;;;;;12.7;10.8;;;;;;;10.54;73.94141;954.2346;;;;
2019/04/08 05:39:22;;;;;;;13;11.6;;;;;;;10.53;74.16211;954.2795;;;;
2019/04/08 05:41:47;;;;;;;13.1;11.7;;;;;;;;;;;;;
2019/04/08 05:44:12;;;;;;;14.2;12.4;;;;;;;;;;;;;
2019/04/08 05:46:37;;;;;;;14.8;12.7;;;;;;;;;;;;;
2019/04/08 05:49:52;;;;;;;15.8;12.9;;;;;;;;;;;;;
2019/04/08 06:00:57;;;;;;;15.1;13.1;;;;;;;;;;;;;
2019/04/08 06:05:59;;;;;;;16.9;13.5;;;;;;;;;;;;;
2019/04/08 06:08:53;;;;;;;17.3;13.7;;;;;;;;;;;;;
2019/04/08 06:10:59;;;;;;;16.8;14.6;;;;;;;;;;;;;
2019/04/08 06:13:18;;;;;;;15.5;13.8;;;;;;;;;;;;;
2019/04/08 06:15:37;;;;;;;16.8;14.4;;;;;;;;;;;;;
2019/04/08 06:18:28;;;;;;;15.3;13.7;;;;;;;;;;;;;
2019/04/08 06:21:21;;;;;;;32.5;23.6;;;;;;;;;;;;;
2019/04/08 06:26:02;;;;;;;17.5;14.6;;;;;;;;;;;;;
2019/04/08 06:27:42;;;;;;;17.3;14.3;;;;;;;;;;;;;
2019/04/08 06:30:19;;;;;;;16.6;13.8;;;;;;;;;;;;;
2019/04/08 06:32:33;;;;;;;16.7;14.2;;;;;;;;;;;;;
2019/04/08 06:35:26;;;;;;;16.4;14;;;;;;;;;;;;;
2019/04/08 06:40:40;;;;;;;14.8;12.9;;;;;;;;;;;;;
2019/04/08 06:40:51;;;;;;;17.5;14;;;;;;;;;;;;;
2019/04/08 06:44:30;;;;;;;15.9;13.5;;;;;;;;;;;;;
2019/04/08 06:48:50;;;;;;;15.1;13.2;;;;;;;;;;;;;
2019/04/08 06:53:19;;;;;;;14.7;13;;;;;;;;;;;;;
2019/04/08 06:58:14;;;;;;;15.5;13.5;;;;;;;;;;;;;
2019/04/08 07:12:16;;;;;;;14.9;12.8;;;;;;;;;;;;;
2019/04/08 07:16:53;;;;;;;15.9;11.9;;;;;;;;;;;;;
2019/04/08 07:19:28;;;;;;;13.5;12.1;;;;;;;;;;;;;
2019/04/08 07:25:27;;;;;;;14.1;11.3;;;;;;;;;;;;;
2019/04/08 07:30:15;;;;;;;12.6;11.1;;;;;;;;;;;;;
2019/04/08 07:32:36;;;;;;;13.6;12;;;;;;;;;;;;;
2019/04/08 07:36:12;;;;;;;13;11.6;;;;;;;;;;;;;
2019/04/08 07:37:29;;;;;;;13.3;11.7;;;;;;;;;;;;;
2019/04/08 07:39:56;;;;;;;13.4;11.5;;;;;;;;;;;;;
2019/04/08 07:42:28;;;;;;;13.9;11.8;;;;;;;;;;;;;
2019/04/08 07:44:47;;;;;;;13.9;12;;;;;;;;;;;;;
2019/04/08 07:47:17;;;;;;;13.7;11.8;;;;;;;;;;;;;
2019/04/08 07:54:11;;;;;;;14.6;11.1;;;;;;;11.47;70.12305;954.6028;;;;
2019/04/08 08:00:41;;;;;;;14.1;11.8;;;;;;;11.46;69.76563;954.6818;;;;
2019/04/08 08:02:15;;;;;;;13.9;11.7;;;;;;;11.25;70.41016;954.6806;;;;
2019/04/08 08:04:38;;;;;;;17.6;12.3;;;;;;;11.43;69.64844;954.7042;;;;
2019/04/08 08:18:51;;;;;;;14.3;12.7;;;;;;;11.41;70.00293;954.7541;;;;
2019/04/08 08:23:39;;;;;;;17.3;13.5;;;;;;;11.43;70.10449;954.8469;;;;
2019/04/08 08:32:24;;;;;;;15.9;12.4;;;;;;;11.38;69.67578;954.8312;;;;
2019/04/08 08:38:23;;;;;;;15.3;13;;;;;;;11.38;69.35156;954.8103;;;;
2019/04/08 08:41:16;;;;;;;16.6;14.2;;;;;;;11.42;68.85547;954.8779;;;;
2019/04/08 08:48:51;;;;;;;16;11.9;;;;;;;11.33;69.38867;954.8425;;;;
2019/04/08 08:51:14;;;;;;;12.1;10.8;;;;;;;11.88;67.52637;954.8215;;;;
2019/04/08 08:59:47;;;;;;;11.4;9.6;;;;;;;12.56;64.80469;954.7775;;;;
2019/04/08 09:04:56;;;;;;;12.5;10.6;;;;;;;12.79;64.16992;954.76;;;;
2019/04/08 09:09:34;;;;;;;11.8;10.6;;;;;;;12.9;62.76563;954.7626;;;;
2019/04/08 09:11:53;;;;;;;11.9;10.4;;;;;;;12.89;62.09375;954.7675;;;;
2019/04/08 09:14:20;;;;;;;11.1;9.8;;;;;;;12.97;62.0498;954.6696;;;;
2019/04/08 09:17:04;;;;;;;10;8.7;;;;;;;13.35;61.79004;954.6928;;;;
2019/04/08 09:38:44;;;;;;;14;9.1;;;;;;;13.35;59.72168;954.8528;;;;
2019/04/08 09:44:32;;;;;;;14.8;9.2;;;;;;;13.41;59.13574;954.7788;;;;
2019/04/08 09:44:50;;;;;;;18.6;9.4;;;;;;;13.05;60.71875;954.8834;;;;
2019/04/08 09:47:16;;;;;;;12.7;10.1;;;;;;;13.05;61.47949;954.8144;;;;
2019/04/08 09:54:49;;;;;;;11.6;10.2;;;;;;;13.01;61.44141;954.7628;;;;
2019/04/08 09:57:23;;;;;;;12.1;10.3;;;;;;;13.29;60.10547;954.8086;;;;
2019/04/08 09:59:31;;;;;;;12.2;9;;;;;;;13.51;59.50781;954.8239;;;;
2019/04/08 10:04:25;;;;;;;10.7;9.5;;;;;;;13.12;60.75195;954.8474;;;;
2019/04/08 10:06:54;;;;;;;11.4;9.5;;;;;;;13.19;60.24805;954.8412;;;;
2019/04/08 10:09:23;;;;;;;12.6;10.4;;;;;;;13.29;60.07031;954.8748;;;;
2019/04/08 10:14:00;;;;;;;12.4;9.5;;;;;;;13.51;59.19336;954.7731;;;;
2019/04/08 10:16:44;;;;;;;11.6;10.4;;;;;;;13.45;59.43262;954.7849;;;;
2019/04/08 10:21:32;;;;;;;13;9.6;;;;;;;13.13;60.23828;954.8631;;;;
2019/04/08 10:33:24;;;;;;;11;9.7;;;;;;;12.88;61.4668;954.8777;;;;
2019/04/08 10:40:36;;;;;;;11.7;9.7;;;;;;;13.14;60.24023;954.9128;;;;
2019/04/08 10:43:15;;;;;;;11.4;10.1;;;;;;;13.19;60.125;954.9322;;;;
2019/04/08 10:45:34;;;;;;;11.1;9.9;;;;;;;13.25;59.97559;954.9194;;;;
2019/04/08 10:48:24;;;;;;;12.5;10.4;;;;;;;13.31;59.65918;954.9144;;;;
2019/04/08 10:50:17;;;;;;;11.8;10;;;;;;;13.22;60.16211;954.9839;;;;
2019/04/08 10:55:09;;;;;;;12.1;9.8;;;;;;;13.19;60.03516;954.9402;;;;
2019/04/08 10:57:41;;;;;;;12.6;10.4;;;;;;;13.23;59.79395;954.9177;;;;
2019/04/08 11:00:34;;;;;;;12.7;9.6;;;;;;;13.13;60.53027;954.936;;;;
2019/04/08 11:12:35;;;;;;;11.3;9.6;;;;;;;13.4;63.24121;954.9933;;;;
2019/04/08 11:15:28;;;;;;;11.7;9.3;;;;;;;13.31;62.73535;954.9715;;;;
2019/04/08 11:18:03;;;;;;;10.2;9;;;;;;;13.6;62.0166;954.9498;;;;
2019/04/08 11:26:15;;;;;;;12.3;9.6;;;;;;;13.35;64.00488;954.992;;;;
2019/04/08 11:28:53;;;;;;;11.1;9.3;;;;;;;13.56;62.73926;954.9553;;;;
2019/04/08 11:40:04;;;;;;;11;8.8;;;;;;;13.98;60.84863;954.9498;;;;
2019/04/08 11:47:21;;;;;;;11.3;8.3;;;;;;;14.54;57.66309;954.9559;;;;
2019/04/08 12:03:16;;;;;;;11.7;8.1;;;;;;;14.63;56.20508;954.9641;;;;
2019/04/08 12:05:15;;;;;;;8.9;8;;;;;;;14.4;56.60156;954.9465;;;;
2019/04/08 12:07:57;;;;;;;9.5;8.2;;;;;;;14.22;56.47754;954.9221;;;;
2019/04/08 12:10:02;;;;;;;11.4;9.8;;;;;;;14.22;56.62305;954.8999;;;;
2019/04/08 12:12:58;;;;;;;11.2;9.1;;;;;;;14.34;56.52734;954.9297;;;;
2019/04/08 12:14:57;;;;;;;10.8;9.1;;;;;;;14.15;57.14063;954.8763;;;;
2019/04/08 12:17:17;;;;;;;11.3;8.9;;;;;;;13.98;57.07227;954.8197;;;;
2019/04/08 12:19:56;;;;;;;10.7;8.9;;;;;;;14.14;57.06055;954.8605;;;;
2019/04/08 12:22:45;;;;;;;10.9;8.6;;;;;;;13.88;57.4082;954.7653;;;;
2019/04/08 12:24:34;;;;;;;9.8;8.6;;;;;;;13.97;58.77539;954.7517;;;;
2019/04/08 12:36:36;;;;;;;10.3;8.8;;;;;;;14.51;56.6709;954.821;;;;
2019/04/08 12:38:41;;;;;;;9.5;7.7;;;;;;;14.47;55.9834;954.759;;;;
2019/04/08 12:50:49;;;;;;;8.9;7.8;;;;;;;15.55;54.43359;954.723;;;;
2019/04/08 12:53:15;;;;;;;9.6;7.8;;;;;;;15.57;52.88379;954.6761;;;;
2019/04/08 12:55:42;;;;;;;10.3;8;;;;;;;16.01;52.36426;954.7505;;;;
2019/04/08 12:58:36;;;;;;;9.6;7.8;;;;;;;16.21;51.57715;954.6794;;;;
2019/04/08 13:00:36;;;;;;;10.2;8.5;;;;;;;16.08;51.80957;954.7344;;;;
2019/04/08 13:09:46;;;;;;;9.7;8.3;;;;;;;15.47;53.82813;954.718;;;;
2019/04/08 13:12:17;;;;;;;10.4;8.2;;;;;;;15.76;52.19922;954.6936;;;;
2019/04/08 13:14:50;;;;;;;10.5;8.7;;;;;;;16.17;51.08984;954.6805;;;;
2019/04/08 13:17:24;;;;;;;10;8.9;;;;;;;16.07;50.01855;954.6272;;;;
2019/04/08 13:20:03;;;;;;;9.6;8.2;;;;;;;15.89;50.7959;954.6392;;;;
2019/04/08 13:22:38;;;;;;;12.1;9.3;;;;;;;15.85;51.72559;954.6541;;;;
2019/04/08 13:25:05;;;;;;;10.6;8.9;;;;;;;16.06;49.9834;954.6202;;;;
2019/04/08 13:27:52;;;;;;;9.9;8.4;;;;;;;16.32;50.7002;954.6481;;;;
2019/04/08 13:30:24;;;;;;;10.5;8.3;;;;;;;16.52;49.05469;954.5993;;;;
2019/04/08 13:32:53;;;;;;;10.9;8.3;;;;;;;16.85;47.97559;954.6199;;;;
2019/04/08 13:35:23;;;;;;;10.3;8.5;;;;;;;16.54;48.5498;954.6701;;;;
2019/04/08 13:37:59;;;;;;;9.3;8.3;;;;;;;16;50.69727;954.6381;;;;
2019/04/08 13:40:30;;;;;;;10.2;8.5;;;;;;;16.48;49.06348;954.6092;;;;
2019/04/08 13:42:57;;;;;;;10.5;8.4;;;;;;;16.53;49.69824;954.6242;;;;
2019/04/08 13:45:34;;;;;;;9.6;8.6;;;;;;;16.57;48.27246;954.613;;;;
2019/04/08 13:48:11;;;;;;;11.4;8.6;;;;;;;16.01;49.18945;954.5636;;;;
2019/04/08 13:50:39;;;;;;;10.7;8.4;;;;;;;15.82;50.43945;954.6069;;;;
2019/04/08 13:53:09;;;;;;;10.4;8.6;;;;;;;15.67;51.72754;954.5736;;;;
2019/04/08 13:55:35;;;;;;;10.9;8.6;;;;;;;16.04;49.51953;954.5313;;;;
2019/04/08 13:58:00;;;;;;;11.5;8.5;;;;;;;16.1;49.91016;954.5438;;;;
2019/04/08 14:00:38;;;;;;;10.8;8.4;;;;;;;14.97;51.65527;954.5695;;;;
2019/04/08 14:03:00;;;;;;;11.1;8.9;;;;;;;15.39;51.57129;954.5903;;;;
2019/04/08 14:05:28;;;;;;;9;7.8;;;;;;;15.4;50.98633;954.533;;;;
2019/04/08 14:07:59;;;;;;;9;8.1;;;;;;;14.96;53.2373;954.5577;;;;
2019/04/08 14:10:32;;;;;;;11;8.6;;;;;;;15.09;53.20996;954.5455;;;;
2019/04/08 14:13:06;;;;;;;10.5;8.5;;;;;;;15.04;52.24805;954.5667;;;;
2019/04/08 14:15:35;;;;;;;9.4;8.4;;;;;;;15.17;52.8252;954.6079;;;;
2019/04/08 14:18:42;;;;;;;8.8;7.9;;;;;;;14.86;53.42676;954.5388;;;;
2019/04/08 14:20:34;;;;;;;9.3;7.7;;;;;;;14.74;53.57031;954.5736;;;;
2019/04/08 14:23:09;;;;;;;8.6;7.7;;;;;;;14.55;54.26465;954.5689;;;;
2019/04/08 14:25:40;;;;;;;9;7.9;;;;;;;14.57;53.99805;954.5913;;;;
2019/04/08 14:28:17;;;;;;;8.3;7.4;;;;;;;14.74;54.27734;954.5997;;;;
2019/04/08 14:30:47;;;;;;;8.8;7.2;;;;;;;14.97;52.4541;954.5422;;;;
2019/04/08 14:33:19;;;;;;;8.4;7.1;;;;;;;14.66;52.67383;954.5302;;;;
2019/04/08 14:35:48;;;;;;;8.4;7.1;;;;;;;14.67;53.98828;954.5541;;;;
2019/04/08 14:38:22;;;;;;;8.7;7.1;;;;;;;14.68;54.41699;954.5609;;;;
2019/04/08 14:40:48;;;;;;;8.6;7.3;;;;;;;14.41;53.94434;954.5413;;;;
2019/04/08 14:43:13;;;;;;;8.9;7.1;;;;;;;14.1;55.03906;954.5447;;;;
2019/04/08 14:45:38;;;;;;;10;7.3;;;;;;;14.63;53.29883;954.5076;;;;
2019/04/08 14:48:03;;;;;;;7.1;6.3;;;;;;;14.86;53.29199;954.5427;;;;
2019/04/08 14:50:28;;;;;;;7.9;6.8;;;;;;;15.08;53.22949;954.5648;;;;
2019/04/08 14:52:54;;;;;;;7.6;6.7;;;;;;;14.88;53.35156;954.5916;;;;
2019/04/08 14:55:22;;;;;;;9;7;;;;;;;14.81;54.09473;954.5682;;;;
2019/04/08 14:57:47;;;;;;;10.7;7.5;;;;;;;14.96;53.11426;954.5276;;;;
2019/04/08 15:00:14;;;;;;;8.1;6.8;;;;;;;15.06;53.1709;954.5722;;;;
2019/04/08 15:02:38;;;;;;;8.8;7.7;;;;;;;15.26;51.07129;954.5022;;;;
2019/04/08 15:05:03;;;;;;;8.5;7.1;;;;;;;15.28;50.99512;954.5559;;;;
2019/04/08 15:07:29;;;;;;;8.3;7;;;;;;;15.41;51.18945;954.5969;;;;
2019/04/08 15:09:54;;;;;;;8.6;7;;;;;;;15.24;50.91211;954.5228;;;;
2019/04/08 15:12:19;;;;;;;13.3;7.4;;;;;;;15.2;51.58203;954.5769;;;;
2019/04/08 15:14:45;;;;;;;8.5;7.1;;;;;;;15.29;51.24414;954.4933;;;;
2019/04/08 15:17:10;;;;;;;9.2;7.5;;;;;;;15.14;52.0918;954.5381;;;;
2019/04/08 15:19:37;;;;;;;8.2;7.2;;;;;;;15.26;51.90234;954.5244;;;;
2019/04/08 15:22:02;;;;;;;9.4;7.4;;;;;;;14.9;52.72559;954.537;;;;
2019/04/08 15:24:29;;;;;;;7.3;6.6;;;;;;;15.1;51.60352;954.5664;;;;
2019/04/08 15:26:54;;;;;;;8.8;7.1;;;;;;;14.99;52.69141;954.5306;;;;
2019/04/08 15:29:20;;;;;;;8;7.2;;;;;;;14.83;53.92871;954.5215;;;;
2019/04/08 15:31:45;;;;;;;8.3;7;;;;;;;15.11;53.06543;954.5782;;;;
2019/04/08 15:34:10;;;;;;;7.8;6.9;;;;;;;14.93;54.03125;954.5661;;;;
2019/04/08 15:36:36;;;;;;;8.7;7.3;;;;;;;15.05;52.64258;954.5825;;;;
2019/04/08 15:39:01;;;;;;;8.2;6.9;;;;;;;14.45;53.97168;954.5356;;;;
2019/04/08 15:41:26;;;;;;;7.8;6.7;;;;;;;14.39;54.47949;954.5801;;;;
2019/04/08 15:43:51;;;;;;;7.9;7;;;;;;;14.42;54.86523;954.5441;;;;
2019/04/08 15:46:16;;;;;;;7.8;6.7;;;;;;;14.38;55.84668;954.5642;;;;
2019/04/08 15:48:41;;;;;;;8;6.8;;;;;;;14.66;54.6709;954.6467;;;;
2019/04/08 15:51:09;;;;;;;8;6.9;;;;;;;14.91;53.69238;954.6219;;;;
2019/04/08 15:53:34;;;;;;;8.7;7.4;;;;;;;14.46;54.95996;954.5739;;;;
2019/04/08 15:55:59;;;;;;;8.9;7.7;;;;;;;14.5;55.30273;954.5627;;;;
2019/04/08 15:58:24;;;;;;;9.8;7.4;;;;;;;14.76;55.03125;954.6103;;;;
2019/04/08 16:00:57;;;;;;;8.4;6.9;;;;;;;14.8;53.95898;954.5251;;;;
2019/04/08 16:03:15;;;;;;;11.1;6.9;;;;;;;14.81;54.34277;954.6061;;;;
2019/04/08 16:05:40;;;;;;;9;7.3;;;;;;;14.81;54.4668;954.6061;;;;
2019/04/08 16:08:07;;;;;;;8.4;7.1;;;;;;;14.63;55.09473;954.565;;;;
2019/04/08 16:10:32;;;;;;;9.1;6.8;;;;;;;14.61;55.10352;954.6678;;;;
2019/04/08 16:12:58;;;;;;;8.2;7.3;;;;;;;14.4;56.48926;954.6728;;;;
2019/04/08 16:15:23;;;;;;;9.2;7.7;;;;;;;14.31;56.6123;954.6438;;;;
2019/04/08 16:17:50;;;;;;;10.1;7.7;;;;;;;14.56;55.69043;954.6799;;;;
2019/04/08 16:20:15;;;;;;;11.2;7.6;;;;;;;14.33;56.82715;954.6754;;;;
2019/04/08 16:22:40;;;;;;;10.5;7.8;;;;;;;14.35;56.77441;954.6769;;;;
2019/04/08 16:25:05;;;;;;;10.2;8.1;;;;;;;14.14;57.28516;954.6613;;;;
2019/04/08 16:27:31;;;;;;;10.9;8.6;;;;;;;14.28;56.77637;954.6301;;;;
2019/04/08 16:29:56;;;;;;;10.3;8;;;;;;;14.02;58.27734;954.6262;;;;
2019/04/08 16:32:22;;;;;;;9.7;8.4;;;;;;;14.38;56.85547;954.6816;;;;
2019/04/08 16:34:47;;;;;;;9.5;8.5;;;;;;;14.22;57.57617;954.6354;;;;
2019/04/08 16:37:13;;;;;;;12.4;8.7;;;;;;;14.1;58.20898;954.6541;;;;
2019/04/08 16:39:38;;;;;;;10.1;7.9;;;;;;;14.17;57.61426;954.6216;;;;
2019/04/08 16:42:03;;;;;;;10.6;7.8;;;;;;;13.91;58.7666;954.6125;;;;
2019/04/08 16:44:29;;;;;;;10.3;7.9;;;;;;;13.86;59.24219;954.6024;;;;
2019/04/08 16:46:54;;;;;;;11.1;8.7;;;;;;;13.56;60.1875;954.639;;;;
2019/04/08 16:49:19;;;;;;;10.1;8.2;;;;;;;13.75;59.30566;954.6197;;;;
2019/04/08 16:51:46;;;;;;;10.7;8.4;;;;;;;13.59;59.64258;954.6213;;;;
2019/04/08 16:54:11;;;;;;;11.8;8.6;;;;;;;13.68;59.27441;954.6078;;;;
2019/04/08 16:56:37;;;;;;;11;8;;;;;;;13.58;59.7627;954.6666;;;;
2019/04/08 16:59:02;;;;;;;10.9;8.4;;;;;;;13.72;59.63672;954.6462;;;;
2019/04/08 17:01:28;;;;;;;9.5;8.3;;;;;;;13.89;59.0332;954.6512;;;;
2019/04/08 17:03:54;;;;;;;11.6;8.4;;;;;;;13.77;59.46484;954.6683;;;;
2019/04/08 17:06:19;;;;;;;9.8;8;;;;;;;13.62;60.23926;954.6572;;;;
2019/04/08 17:08:44;;;;;;;12.3;8.7;;;;;;;13.5;60.29004;954.7092;;;;
2019/04/08 17:11:13;;;;;;;9.3;7.9;;;;;;;13.5;60.44629;954.6922;;;;
2019/04/08 17:13:38;;;;;;;10.5;9.1;;;;;;;13.36;60.4707;954.6435;;;;
2019/04/08 17:16:04;;;;;;;10.7;8.5;;;;;;;13.27;61.10645;954.7001;;;;
2019/04/08 17:18:29;;;;;;;10.9;8.7;;;;;;;13.57;60.47852;954.6639;;;;
2019/04/08 17:20:56;;;;;;;11.7;8.9;;;;;;;13.53;60.69824;954.6867;;;;
2019/04/08 17:23:21;;;;;;;9.3;8.3;;;;;;;13.26;61.25195;954.6572;;;;
2019/04/08 17:25:48;;;;;;;10.6;9.1;;;;;;;13.21;61.78125;954.6701;;;;
2019/04/08 17:28:13;;;;;;;10.9;8.5;;;;;;;13.18;61.56445;954.704;;;;
2019/04/08 17:30:39;;;;;;;12.8;8.2;;;;;;;13.19;61.69043;954.611;;;;
2019/04/08 17:33:04;;;;;;;12;8.4;;;;;;;13.17;62.20117;954.6753;;;;
2019/04/08 17:35:30;;;;;;;10.4;8.7;;;;;;;13.22;62.26367;954.803;;;;
2019/04/08 17:37:55;;;;;;;9.8;8.3;;;;;;;13.14;62.83398;954.7137;;;;
2019/04/08 17:40:20;;;;;;;10.7;8.5;;;;;;;13.32;61.47266;954.7573;;;;
2019/04/08 17:42:46;;;;;;;10.3;8.5;;;;;;;13.2;62.01465;954.801;;;;
2019/04/08 17:45:12;;;;;;;10.6;8.8;;;;;;;13.07;62.8252;954.7589;;;;
2019/04/08 17:47:38;;;;;;;10.6;8.8;;;;;;;13.22;62.55566;954.7888;;;;
2019/04/08 17:50:03;;;;;;;10.6;8.6;;;;;;;13.17;62.12207;954.7833;;;;
2019/04/08 17:52:31;;;;;;;11.5;8.5;;;;;;;13.1;62.45898;954.8024;;;;
2019/04/08 17:54:55;;;;;;;11.2;9;;;;;;;13.11;63.5127;954.8575;;;;
2019/04/08 17:57:23;;;;;;;10.4;8.8;;;;;;;12.82;63.7832;954.8386;;;;
2019/04/08 17:59:48;;;;;;;11.4;9.5;;;;;;;12.72;64.57129;954.8231;;;;
2019/04/08 18:02:13;;;;;;;12.2;9.2;;;;;;;13.02;63.4541;954.8187;;;;
2019/04/08 18:04:38;;;;;;;12.4;9.7;;;;;;;13.05;62.8877;954.8483;;;;
2019/04/08 18:07:03;;;;;;;13.7;10;;;;;;;13.03;63.60059;954.9295;;;;
2019/04/08 18:09:28;;;;;;;13.5;10.3;;;;;;;12.98;63.1582;954.8895;;;;
2019/04/08 18:11:54;;;;;;;13.9;10.4;;;;;;;12.81;63.86035;954.9397;;;;
2019/04/08 18:14:20;;;;;;;12.9;9.7;;;;;;;12.9;63.59473;954.9526;;;;
2019/04/08 18:16:45;;;;;;;13;10;;;;;;;12.58;64.76367;954.96;;;;
2019/04/08 18:19:10;;;;;;;12.3;10.2;;;;;;;12.52;65.08984;955.0167;;;;
2019/04/08 18:21:35;;;;;;;14.2;10.3;;;;;;;12.51;65.11035;955.0439;;;;
2019/04/08 18:24:09;;;;;;;13.6;10.8;;;;;;;12.41;65.64258;955.1271;;;;
2019/04/08 18:26:35;;;;;;;12.2;10.6;;;;;;;12.65;64.87402;955.1021;;;;
2019/04/08 18:29:00;;;;;;;14.3;10.6;;;;;;;12.64;64.70508;955.1252;;;;
2019/04/08 18:31:32;;;;;;;14.1;11;;;;;;;12.72;64.8291;955.165;;;;
2019/04/08 18:34:10;;;;;;;12.8;11.1;;;;;;;12.43;65.5459;955.1808;;;;
2019/04/08 18:36:17;;;;;;;15.8;11.6;;;;;;;12.54;65.30566;955.2252;;;;
2019/04/08 18:38:42;;;;;;;13;11.4;;;;;;;12.44;66.12793;955.1967;;;;
2019/04/08 18:41:09;;;;;;;16.2;11.5;;;;;;;12.33;66.35645;955.2428;;;;
2019/04/08 18:43:34;;;;;;;14.3;11.4;;;;;;;12.3;66.73145;955.2422;;;;
2019/04/08 18:46:00;;;;;;;14.7;11.8;;;;;;;12.26;66.78027;955.2747;;;;
2019/04/08 18:48:26;;;;;;;14.2;11.4;;;;;;;12.31;66.55273;955.2072;;;;
2019/04/08 18:50:51;;;;;;;16.4;12;;;;;;;12.31;66.6875;955.324;;;;
2019/04/08 18:53:17;;;;;;;15.3;11.5;;;;;;;12.34;66.77051;955.3188;;;;
2019/04/08 18:55:42;;;;;;;13.2;11.3;;;;;;;12.52;65.87207;955.3234;;;;
2019/04/08 18:58:09;;;;;;;16.1;12;;;;;;;12.38;66.59766;955.3352;;;;